Frontier, North Dakota
Current Conditions -  °F | °C
As of 11:53 AM on Friday 28 Nov 2014 (Local Time) from KFAR Reporting Station
Overcast Overcast  
Wind Chill:   Ceiling: 4100
Heat Index: 16°   Visibility: 10mi
Dew Point:   Wind: 9mph
Humidity: 71%   Direction: 110°ESE
Pressure: 29.87"   Gusts: NA
Location:  46.8079°N, 96.8643°W
Report Text: KFAR 281753Z 11008KT 10SM SCT017 OVC041 M09/M13 A2987 RMK AO2 SLP134 T10891133 11089 21106 58019
Loading
Personal Weather Stations






























Interactive Weather Map New forecast layout! Learn more

10-Day Weather Forecast

Advertisements
Track Severe Weather on mobile